createdAt,value
2017-07-24T00:00:33.609Z,9.80
2017-07-24T00:03:01.231Z,10.33
2017-07-24T00:05:28.797Z,10.60
2017-07-24T00:07:56.358Z,9.87
2017-07-24T00:10:23.974Z,10.70
2017-07-24T00:12:51.541Z,10.10
2017-07-24T00:15:19.130Z,11.00
2017-07-24T00:17:46.727Z,10.40
2017-07-24T00:20:14.290Z,10.00
2017-07-24T00:22:41.850Z,10.13
2017-07-24T00:25:09.635Z,9.67
2017-07-24T00:27:37.210Z,9.47
2017-07-24T00:30:04.798Z,9.70
2017-07-24T00:32:32.414Z,10.50
2017-07-24T00:34:59.982Z,10.00
2017-07-24T00:37:27.570Z,9.13
2017-07-24T00:40:00.714Z,9.63
2017-07-24T00:42:28.277Z,10.07
2017-07-24T00:44:55.870Z,10.17
2017-07-24T00:47:23.486Z,10.43
2017-07-24T00:49:51.050Z,10.60
2017-07-24T00:52:18.642Z,10.47
2017-07-24T00:54:46.238Z,9.40
2017-07-24T00:57:13.802Z,11.00
2017-07-24T00:59:41.370Z,10.80
2017-07-24T01:02:08.986Z,10.20
2017-07-24T01:04:36.579Z,10.57
2017-07-24T01:07:04.151Z,10.33
2017-07-24T01:09:31.737Z,10.87
2017-07-24T01:11:59.322Z,10.90
2017-07-24T01:14:26.904Z,10.10
2017-07-24T01:16:54.498Z,11.37
2017-07-24T01:19:22.099Z,10.70
2017-07-24T01:21:50.458Z,10.70
2017-07-24T01:24:18.066Z,9.90
2017-07-24T01:26:45.658Z,10.77
2017-07-24T01:29:13.249Z,10.63
2017-07-24T01:31:40.874Z,10.10
2017-07-24T01:34:08.446Z,10.70
2017-07-24T01:36:36.022Z,9.80
2017-07-24T01:39:03.758Z,11.33
2017-07-24T01:41:31.354Z,9.97
2017-07-24T01:43:58.934Z,10.70
2017-07-24T01:46:26.614Z,11.23
2017-07-24T01:48:54.214Z,10.83
2017-07-24T01:51:21.794Z,9.87
2017-07-24T01:53:49.439Z,10.90
2017-07-24T01:56:17.058Z,10.07
2017-07-24T01:58:44.653Z,10.53
2017-07-24T02:01:12.343Z,10.43
2017-07-24T02:03:39.950Z,10.20
2017-07-24T02:06:07.534Z,10.30
2017-07-24T02:08:35.146Z,10.63
2017-07-24T02:11:02.742Z,11.00
2017-07-24T02:13:30.335Z,10.87
2017-07-24T02:15:57.966Z,11.10
2017-07-24T02:18:25.558Z,10.07
2017-07-24T02:20:53.126Z,10.00
2017-07-24T02:23:20.747Z,10.03
2017-07-24T02:25:48.338Z,9.90
2017-07-24T02:28:15.902Z,10.30
2017-07-24T02:30:43.491Z,9.73
2017-07-24T02:33:11.054Z,9.70
2017-07-24T02:35:38.751Z,9.90
2017-07-24T02:38:06.375Z,9.90
2017-07-24T02:40:33.951Z,9.77
2017-07-24T02:43:01.517Z,9.63
2017-07-24T02:45:31.537Z,8.97
2017-07-24T02:48:00.115Z,9.50
2017-07-24T02:50:28.723Z,9.70
2017-07-24T02:52:57.152Z,10.43
2017-07-24T02:55:27.224Z,9.67
2017-07-24T02:57:56.115Z,9.00
2017-07-24T03:00:24.923Z,9.30
2017-07-24T03:02:54.115Z,10.30
2017-07-24T03:05:22.661Z,10.07
2017-07-24T03:07:50.486Z,9.83
2017-07-24T03:10:18.061Z,10.40
2017-07-24T03:12:45.626Z,10.30
2017-07-24T03:15:13.243Z,9.60
2017-07-24T03:17:40.838Z,10.23
2017-07-24T03:20:08.410Z,9.27
2017-07-24T03:22:36.027Z,9.33
2017-07-24T03:25:03.599Z,9.50
2017-07-24T03:27:31.167Z,10.40
2017-07-24T03:29:58.758Z,9.53
2017-07-24T03:32:26.326Z,9.20
2017-07-24T03:34:53.884Z,9.63
2017-07-24T03:37:21.474Z,9.10
2017-07-24T03:39:49.035Z,8.67
2017-07-24T03:42:16.602Z,8.47
2017-07-24T03:44:44.214Z,8.30
2017-07-24T03:47:11.808Z,8.70
2017-07-24T03:49:39.402Z,8.63
2017-07-24T03:52:07.018Z,8.70
2017-07-24T03:54:34.605Z,7.73
2017-07-24T03:57:02.162Z,8.20
2017-07-24T03:59:29.748Z,7.90
2017-07-24T04:01:57.334Z,8.77
2017-07-24T04:04:24.893Z,8.17
2017-07-24T04:06:52.510Z,7.83
2017-07-24T04:09:20.094Z,8.20
2017-07-24T04:11:47.687Z,8.80
2017-07-24T04:14:16.121Z,8.17
2017-07-24T04:16:43.710Z,7.53
2017-07-24T04:19:11.293Z,8.30
2017-07-24T04:21:38.911Z,9.03
2017-07-24T04:24:06.473Z,8.53
2017-07-24T04:26:34.357Z,8.63
2017-07-24T04:29:01.970Z,8.83
2017-07-24T04:31:29.534Z,9.20
2017-07-24T04:33:57.098Z,9.33
2017-07-24T04:36:24.682Z,8.53
2017-07-24T04:38:52.243Z,8.40
2017-07-24T04:41:19.836Z,8.07
2017-07-24T04:43:47.475Z,8.43
2017-07-24T04:46:15.079Z,8.47
2017-07-24T04:48:43.414Z,8.63
2017-07-24T04:51:11.030Z,9.70
2017-07-24T04:53:39.382Z,9.37
2017-07-24T04:56:06.974Z,9.23
2017-07-24T04:58:35.384Z,9.63
2017-07-24T05:01:02.949Z,9.10
2017-07-24T05:03:30.530Z,9.03
2017-07-24T05:05:58.139Z,8.90
2017-07-24T05:08:25.698Z,9.03
2017-07-24T05:10:53.254Z,8.90
2017-07-24T05:13:20.849Z,9.80
2017-07-24T05:15:50.086Z,9.03
2017-07-24T05:18:17.658Z,9.90
2017-07-24T05:20:46.086Z,9.57
2017-07-24T05:23:13.651Z,9.97
2017-07-24T05:25:41.926Z,9.27
2017-07-24T05:28:09.522Z,12.70
2017-07-24T05:30:37.086Z,10.83
2017-07-24T05:33:05.190Z,9.30
2017-07-24T05:35:32.808Z,8.73
2017-07-24T05:38:00.382Z,37.70
2017-07-24T05:40:27.975Z,42.67
2017-07-24T05:42:55.594Z,19.13
2017-07-24T05:45:23.190Z,17.60
2017-07-24T05:47:50.976Z,13.10
2017-07-24T05:50:18.615Z,12.70
2017-07-24T05:52:46.191Z,11.60
2017-07-24T05:55:13.778Z,12.43
2017-07-24T05:57:41.399Z,13.10
2017-07-24T06:00:09.023Z,11.63
2017-07-24T06:02:37.965Z,11.83
2017-07-24T06:05:05.570Z,10.40
2017-07-24T06:07:33.394Z,11.73
2017-07-24T06:10:00.981Z,12.33
2017-07-24T06:12:28.578Z,10.20
2017-07-24T06:14:56.194Z,10.50
2017-07-24T06:17:23.788Z,11.23
2017-07-24T06:19:51.423Z,11.00
2017-07-24T06:22:19.019Z,10.97
2017-07-24T06:24:46.586Z,10.60
2017-07-24T06:27:14.194Z,10.40
2017-07-24T06:29:42.637Z,10.53
2017-07-24T06:32:10.198Z,9.43
2017-07-24T06:34:37.810Z,10.50
2017-07-24T06:37:05.374Z,10.37
2017-07-24T06:39:32.966Z,9.40
2017-07-24T06:42:00.603Z,10.20
2017-07-24T06:44:28.170Z,9.53
2017-07-24T06:46:55.776Z,9.33
2017-07-24T06:49:23.738Z,9.73
2017-07-24T06:51:52.729Z,8.77
2017-07-24T06:54:21.266Z,9.60
2017-07-24T06:56:49.623Z,8.70
2017-07-24T06:59:17.183Z,8.57
2017-07-24T07:01:44.744Z,8.90
2017-07-24T07:04:17.762Z,9.00
2017-07-24T07:06:45.359Z,8.53
2017-07-24T07:09:12.955Z,9.03
2017-07-24T07:11:41.875Z,9.30
2017-07-24T07:14:13.403Z,9.63
2017-07-24T07:16:50.416Z,10.00
2017-07-24T07:19:24.955Z,9.30
2017-07-24T07:28:00.426Z,9.83
2017-07-24T07:30:28.253Z,9.77
2017-07-24T07:32:55.862Z,10.43
2017-07-24T07:35:23.486Z,10.90
2017-07-24T07:37:51.053Z,10.43
2017-07-24T07:40:18.842Z,10.37
2017-07-24T07:42:47.386Z,11.33
2017-07-24T07:45:15.740Z,10.90
2017-07-24T07:47:43.318Z,10.60
2017-07-24T07:50:11.677Z,10.07
2017-07-24T07:52:39.271Z,11.10
2017-07-24T07:55:06.842Z,11.43
2017-07-24T07:57:35.178Z,9.50
2017-07-24T08:00:02.742Z,11.57
2017-07-24T08:02:31.108Z,10.83
2017-07-24T08:04:58.726Z,10.90
2017-07-24T08:07:27.061Z,10.00
2017-07-24T08:09:56.524Z,10.53
2017-07-24T08:12:25.082Z,10.73
2017-07-24T08:14:52.717Z,10.47
2017-07-24T08:17:20.978Z,10.80
2017-07-24T08:19:48.618Z,10.80
2017-07-24T08:22:16.887Z,10.90
2017-07-24T08:24:44.474Z,10.60
2017-07-24T08:27:12.069Z,9.90
2017-07-24T08:32:14.064Z,10.37
2017-07-24T08:34:41.698Z,10.33
2017-07-24T08:37:09.573Z,11.53
2017-07-24T08:39:37.172Z,10.40
2017-07-24T08:42:04.770Z,13.53
2017-07-24T08:44:33.855Z,15.30
2017-07-24T08:47:01.435Z,15.13
2017-07-24T08:49:29.069Z,20.90
2017-07-24T08:51:56.666Z,16.60
2017-07-24T08:54:24.251Z,12.07
2017-07-24T08:56:51.858Z,10.90
2017-07-24T08:59:19.422Z,13.47
2017-07-24T09:01:47.010Z,11.23
2017-07-24T09:04:14.640Z,10.70
2017-07-24T09:06:42.210Z,10.93
2017-07-24T09:09:09.812Z,10.33
2017-07-24T09:11:37.580Z,10.93
2017-07-24T09:14:05.171Z,10.23
2017-07-24T09:16:32.742Z,11.03
2017-07-24T09:19:01.034Z,10.30
2017-07-24T09:21:28.619Z,9.30
2017-07-24T09:23:56.510Z,9.50
2017-07-24T09:26:24.105Z,10.33
2017-07-24T09:28:51.670Z,10.53
2017-07-24T09:31:19.263Z,10.00
2017-07-24T09:33:46.882Z,10.90
2017-07-24T09:36:15.002Z,15.30
2017-07-24T09:38:42.568Z,12.67
2017-07-24T09:41:11.059Z,12.13
2017-07-24T09:43:38.651Z,12.13
2017-07-24T09:46:06.223Z,11.20
2017-07-24T09:48:34.113Z,10.97
2017-07-24T09:51:01.682Z,10.23
2017-07-24T09:53:29.242Z,9.20
2017-07-24T09:55:56.862Z,9.53
2017-07-24T09:58:24.454Z,9.57
2017-07-24T10:00:52.022Z,9.80
2017-07-24T10:03:19.654Z,9.70
2017-07-24T10:05:47.218Z,9.10
2017-07-24T10:08:14.813Z,8.50
2017-07-24T10:10:42.418Z,8.50
2017-07-24T10:13:10.002Z,9.10
2017-07-24T10:15:37.566Z,7.70
2017-07-24T10:18:05.402Z,7.93
2017-07-24T10:20:33.258Z,7.70
2017-07-24T10:23:00.829Z,8.60
2017-07-24T10:25:29.198Z,8.37
2017-07-24T10:27:56.762Z,8.33
2017-07-24T10:30:25.166Z,8.10
2017-07-24T10:32:53.055Z,8.57
2017-07-24T10:35:21.079Z,7.90
2017-07-24T10:37:48.638Z,7.10
2017-07-24T10:40:17.042Z,8.30
2017-07-24T10:42:44.632Z,8.57
2017-07-24T10:45:12.950Z,8.13
2017-07-24T10:47:40.583Z,8.30
2017-07-24T10:50:08.866Z,9.13
2017-07-24T10:52:36.426Z,8.37
2017-07-24T10:55:04.819Z,7.57
2017-07-24T10:57:32.382Z,7.93
2017-07-24T10:59:59.973Z,7.40
2017-07-24T11:02:27.596Z,7.13
2017-07-24T11:04:55.195Z,7.70
2017-07-24T11:07:22.790Z,7.40
2017-07-24T11:09:50.426Z,8.17
2017-07-24T11:12:17.999Z,7.30
2017-07-24T11:14:45.595Z,8.10
2017-07-24T11:17:13.242Z,7.37
2017-07-24T11:19:40.809Z,7.97
2017-07-24T11:22:08.399Z,7.43
2017-07-24T11:24:36.027Z,7.40
2017-07-24T11:27:03.627Z,7.40
2017-07-24T11:29:31.228Z,7.83
2017-07-24T11:31:58.855Z,7.63
2017-07-24T11:34:26.456Z,7.47
2017-07-24T11:36:54.030Z,7.20
2017-07-24T11:39:22.346Z,7.20
2017-07-24T11:41:49.939Z,7.40
2017-07-24T11:44:17.530Z,6.33
2017-07-24T11:46:45.130Z,7.90
2017-07-24T11:49:12.731Z,7.20
2017-07-24T11:51:40.323Z,6.90
2017-07-24T11:54:07.939Z,7.40
2017-07-24T11:56:35.528Z,6.30
2017-07-24T11:59:03.106Z,6.60
2017-07-24T12:01:30.726Z,6.40
2017-07-24T12:03:58.615Z,6.53
2017-07-24T12:06:26.209Z,6.60
2017-07-24T12:08:54.626Z,5.63
2017-07-24T12:11:22.623Z,6.67
2017-07-24T12:13:50.226Z,6.50
2017-07-24T12:16:17.822Z,6.30
2017-07-24T12:18:45.382Z,5.53
2017-07-24T12:21:12.958Z,6.00
2017-07-24T12:23:40.583Z,5.90
2017-07-24T12:26:08.184Z,6.10
2017-07-24T12:28:35.784Z,5.57
2017-07-24T12:31:03.435Z,5.70
2017-07-24T12:33:31.003Z,5.97
2017-07-24T12:35:58.577Z,5.90
2017-07-24T12:38:26.676Z,6.10
2017-07-24T12:40:54.995Z,6.17
2017-07-24T12:43:23.183Z,5.80
2017-07-24T12:45:51.103Z,6.60
2017-07-24T12:48:19.100Z,6.40
2017-07-24T12:50:47.446Z,5.70
2017-07-24T12:53:15.091Z,6.60
2017-07-24T12:55:42.671Z,5.23
2017-07-24T12:58:10.954Z,6.20
2017-07-24T13:00:38.608Z,6.63
2017-07-24T13:03:06.228Z,5.90
2017-07-24T13:05:33.848Z,6.73
2017-07-24T13:08:01.823Z,6.20
2017-07-24T13:10:30.162Z,6.03
2017-07-24T13:13:10.682Z,6.57
2017-07-24T13:15:38.269Z,6.13
2017-07-24T13:18:05.946Z,6.87
2017-07-24T13:20:33.587Z,6.73
2017-07-24T13:23:02.746Z,6.27
2017-07-24T13:25:30.330Z,6.30
2017-07-24T13:27:58.905Z,5.83
2017-07-24T13:30:27.412Z,5.47
2017-07-24T13:32:55.834Z,5.30
2017-07-24T13:35:25.305Z,6.60
2017-07-24T13:37:52.920Z,6.13
2017-07-24T13:40:20.511Z,6.30
2017-07-24T13:42:48.123Z,10.93
2017-07-24T13:45:15.755Z,10.10
2017-07-24T13:47:43.366Z,24.03
2017-07-24T13:50:11.600Z,19.93
2017-07-24T13:52:39.174Z,21.20
2017-07-24T13:55:06.742Z,21.70
2017-07-24T13:57:34.387Z,18.03
2017-07-24T14:00:01.966Z,18.90
2017-07-24T14:02:30.299Z,17.40
2017-07-24T14:04:58.079Z,13.23
2017-07-24T14:07:26.298Z,14.23
2017-07-24T14:09:53.910Z,12.50
2017-07-24T14:12:21.588Z,13.57
2017-07-24T14:14:49.350Z,11.70
2017-07-24T14:17:17.125Z,13.70
2017-07-24T14:19:44.794Z,12.10
2017-07-24T14:22:12.386Z,10.70
2017-07-24T14:24:40.594Z,11.97
2017-07-24T14:27:08.280Z,12.47
2017-07-24T14:29:36.643Z,12.50
2017-07-24T14:32:04.566Z,11.87
2017-07-24T14:34:34.822Z,12.10
2017-07-24T14:37:02.439Z,12.23
2017-07-24T14:39:30.062Z,11.47
2017-07-24T14:41:58.303Z,12.27
2017-07-24T14:44:27.368Z,12.23
2017-07-24T14:46:56.823Z,11.90
2017-07-24T14:49:25.197Z,11.60
2017-07-24T14:51:52.798Z,11.80
2017-07-24T14:54:21.933Z,10.50
2017-07-24T14:56:50.506Z,10.50
2017-07-24T14:59:18.800Z,10.80
2017-07-24T15:01:47.411Z,11.13
2017-07-24T15:04:16.105Z,10.87
2017-07-24T15:06:45.421Z,10.83
2017-07-24T15:09:13.756Z,10.37
2017-07-24T15:11:42.231Z,11.03
2017-07-24T15:14:10.655Z,11.00
2017-07-24T15:16:38.312Z,10.03
2017-07-24T15:19:06.110Z,10.73
2017-07-24T15:21:35.307Z,11.33
2017-07-24T15:24:04.370Z,10.50
2017-07-24T15:26:32.123Z,9.50
2017-07-24T15:28:59.750Z,11.23
2017-07-24T15:31:29.451Z,10.50
2017-07-24T15:33:58.015Z,9.83
2017-07-24T15:36:25.684Z,10.30
2017-07-24T15:38:53.406Z,8.90
2017-07-24T15:41:21.034Z,8.97
2017-07-24T15:43:48.641Z,9.77
2017-07-24T15:46:17.327Z,9.70
2017-07-24T15:48:44.953Z,10.13
2017-07-24T15:51:13.968Z,10.70
2017-07-24T15:53:42.331Z,11.30
2017-07-24T15:56:10.269Z,9.33
2017-07-24T15:58:39.262Z,10.73
2017-07-24T16:01:07.564Z,10.57
2017-07-24T16:03:35.545Z,12.70
2017-07-24T16:06:04.438Z,10.20
2017-07-24T16:08:32.056Z,13.70
2017-07-24T16:10:59.703Z,10.23
2017-07-24T16:13:27.278Z,9.67
2017-07-24T16:15:54.882Z,10.03
2017-07-24T16:18:22.540Z,10.67
2017-07-24T16:20:51.514Z,11.50
2017-07-24T16:23:19.156Z,11.57
2017-07-24T16:25:46.798Z,11.03
2017-07-24T16:28:14.391Z,9.83
2017-07-24T16:30:42.365Z,10.40
2017-07-24T16:33:10.749Z,10.13
2017-07-24T16:35:39.085Z,10.73
2017-07-24T16:38:06.951Z,10.73
2017-07-24T16:40:34.626Z,16.10
2017-07-24T16:43:02.265Z,16.43
2017-07-24T16:45:29.846Z,14.40
2017-07-24T16:47:57.478Z,13.73
2017-07-24T16:50:25.094Z,10.97
2017-07-24T16:52:52.670Z,10.87
2017-07-24T16:55:21.515Z,11.03
2017-07-24T16:57:49.135Z,12.23
2017-07-24T17:00:16.755Z,12.17
2017-07-24T17:02:44.362Z,13.63
2017-07-24T17:05:12.628Z,12.17
2017-07-24T17:07:40.251Z,13.23
2017-07-24T17:10:07.882Z,11.70
2017-07-24T17:12:35.474Z,10.70
2017-07-24T17:15:03.074Z,12.20
2017-07-24T17:17:31.203Z,13.80
2017-07-24T17:19:58.818Z,22.13
2017-07-24T17:22:26.432Z,17.97
2017-07-24T17:24:54.163Z,16.57
2017-07-24T17:27:21.746Z,13.47
2017-07-24T17:29:49.523Z,12.53
2017-07-24T17:32:17.167Z,11.83
2017-07-24T17:34:44.916Z,32.80
2017-07-24T17:37:12.535Z,39.17
2017-07-24T17:39:40.170Z,33.00
2017-07-24T17:42:07.962Z,23.67
2017-07-24T17:44:35.586Z,19.93
2017-07-24T17:47:03.190Z,20.03
2017-07-24T17:49:30.802Z,16.13
2017-07-24T17:51:59.183Z,14.33
2017-07-24T17:54:26.851Z,13.17
2017-07-24T17:56:55.615Z,11.60
2017-07-24T17:59:24.603Z,9.80
2017-07-24T18:01:54.054Z,9.50
2017-07-24T18:04:21.659Z,9.10
2017-07-24T18:06:49.439Z,8.13
2017-07-24T18:09:17.842Z,24.57
2017-07-24T18:11:45.458Z,24.43
2017-07-24T18:14:13.063Z,20.10
2017-07-24T18:16:40.735Z,16.30
2017-07-24T18:19:08.311Z,8.27
2017-07-24T18:21:35.874Z,6.40
2017-07-24T18:24:03.551Z,6.97
2017-07-24T18:26:31.766Z,5.20
2017-07-24T18:28:59.351Z,5.23
2017-07-24T18:31:28.466Z,5.40
2017-07-24T18:33:56.042Z,6.60
2017-07-24T18:36:23.642Z,14.50
2017-07-24T18:38:51.599Z,6.77
2017-07-24T18:41:20.187Z,6.27
2017-07-24T18:43:49.061Z,7.20
2017-07-24T18:46:17.372Z,5.53
2017-07-24T18:48:45.339Z,5.43
2017-07-24T18:51:12.947Z,5.67
2017-07-24T18:53:40.780Z,5.50
2017-07-24T18:56:09.345Z,4.80
2017-07-24T18:58:37.443Z,4.80
2017-07-24T19:01:05.907Z,4.77
2017-07-24T19:03:33.499Z,5.80
2017-07-24T19:06:01.080Z,5.23
2017-07-24T19:08:28.747Z,4.57
2017-07-24T19:10:56.358Z,4.93
2017-07-24T19:13:24.391Z,4.70
2017-07-24T19:15:52.831Z,4.60
2017-07-24T19:18:21.123Z,4.47
2017-07-24T19:20:48.722Z,4.43
2017-07-24T19:23:16.407Z,4.67
2017-07-24T19:25:44.542Z,7.43
2017-07-24T19:28:12.184Z,10.03
2017-07-24T19:30:40.518Z,6.23
2017-07-24T19:33:11.159Z,12.73
2017-07-24T19:35:39.984Z,7.50
2017-07-24T19:38:09.311Z,7.83
2017-07-24T19:40:36.967Z,7.23
2017-07-24T19:43:05.341Z,6.77
2017-07-24T19:45:32.982Z,5.50
2017-07-24T19:48:00.617Z,6.10
2017-07-24T19:50:28.254Z,5.57
2017-07-24T19:52:56.662Z,5.20
2017-07-24T19:55:24.634Z,6.40
2017-07-24T19:57:53.009Z,5.90
2017-07-24T20:00:20.666Z,5.60
2017-07-24T20:02:48.283Z,5.20
2017-07-24T20:05:15.886Z,5.20
2017-07-24T20:07:43.574Z,4.87
2017-07-24T20:10:12.009Z,5.47
2017-07-24T20:12:39.654Z,4.40
2017-07-24T20:15:07.458Z,4.97
2017-07-24T20:17:35.967Z,5.17
2017-07-24T20:20:04.208Z,5.10
2017-07-24T20:22:32.953Z,4.80
2017-07-24T20:25:00.578Z,5.40
2017-07-24T20:27:28.255Z,5.40
2017-07-24T20:29:55.924Z,5.13
2017-07-24T20:32:23.732Z,20.33
2017-07-24T20:34:53.023Z,16.23
2017-07-24T20:37:20.631Z,9.00
2017-07-24T20:39:48.214Z,7.57
2017-07-24T20:42:15.842Z,7.33
2017-07-24T20:44:43.463Z,6.33
2017-07-24T20:47:11.046Z,5.93
2017-07-24T20:49:39.074Z,5.80
2017-07-24T20:52:06.730Z,5.13
2017-07-24T20:54:35.062Z,5.17
2017-07-24T20:57:03.758Z,5.17
2017-07-24T20:59:32.470Z,5.37
2017-07-24T21:02:00.898Z,5.13
2017-07-24T21:04:28.994Z,4.60
2017-07-24T21:06:56.779Z,4.27
2017-07-24T21:09:25.521Z,4.70
2017-07-24T21:11:53.113Z,5.43
2017-07-24T21:14:20.847Z,6.00
2017-07-24T21:16:48.426Z,6.57
2017-07-24T21:19:17.388Z,6.10
2017-07-24T21:21:45.727Z,6.37
2017-07-24T21:24:13.952Z,5.17
2017-07-24T21:26:41.620Z,5.80
2017-07-24T21:29:09.943Z,5.40
2017-07-24T21:31:37.529Z,5.83
2017-07-24T21:34:08.030Z,5.60
2017-07-24T21:36:35.637Z,6.70
2017-07-24T21:39:03.350Z,5.93
2017-07-24T21:41:30.978Z,5.30
2017-07-24T21:43:59.609Z,5.43
2017-07-24T21:46:27.462Z,5.67
2017-07-24T21:48:55.787Z,5.73
2017-07-24T21:51:23.442Z,5.73
2017-07-24T21:53:51.027Z,6.50
2017-07-24T21:56:18.632Z,5.93
2017-07-24T21:58:46.242Z,5.47
2017-07-24T22:01:13.822Z,5.57
2017-07-24T22:03:41.642Z,6.00
2017-07-24T22:06:09.262Z,5.27
2017-07-24T22:08:36.851Z,6.63
2017-07-24T22:11:04.468Z,6.07
2017-07-24T22:13:32.133Z,5.63
2017-07-24T22:15:59.760Z,6.93
2017-07-24T22:18:27.400Z,6.80
2017-07-24T22:20:55.010Z,7.27
2017-07-24T22:23:22.594Z,6.70
2017-07-24T22:25:50.218Z,6.93
2017-07-24T22:28:17.834Z,6.70
2017-07-24T22:30:45.414Z,7.10
2017-07-24T22:33:13.011Z,6.77
2017-07-24T22:35:40.622Z,5.90
2017-07-24T22:38:09.180Z,6.50
2017-07-24T22:40:36.794Z,6.30
2017-07-24T22:43:04.419Z,7.10
2017-07-24T22:45:32.514Z,6.90
2017-07-24T22:48:00.366Z,7.07
2017-07-24T22:50:27.974Z,5.80
2017-07-24T22:52:55.599Z,6.17
2017-07-24T22:55:23.415Z,6.50
2017-07-24T22:57:51.027Z,7.17
2017-07-24T23:00:18.602Z,7.00
2017-07-24T23:02:47.082Z,6.17
2017-07-24T23:05:14.707Z,7.53
2017-07-24T23:07:42.286Z,6.20
2017-07-24T23:10:09.862Z,5.90
2017-07-24T23:12:37.494Z,6.33
2017-07-24T23:15:05.125Z,6.03
2017-07-24T23:17:33.438Z,6.00
2017-07-24T23:20:02.180Z,5.83
2017-07-24T23:22:31.055Z,5.83
2017-07-24T23:24:58.678Z,6.13
2017-07-24T23:27:27.833Z,6.70
2017-07-24T23:29:55.422Z,7.00
2017-07-24T23:32:22.986Z,6.50
2017-07-24T23:34:51.391Z,7.27
2017-07-24T23:37:19.922Z,6.33
2017-07-24T23:39:47.511Z,6.50
2017-07-24T23:42:15.902Z,6.30
2017-07-24T23:44:43.487Z,6.57
2017-07-24T23:47:11.810Z,7.43
2017-07-24T23:49:45.854Z,7.47
2017-07-24T23:52:13.443Z,6.90
2017-07-24T23:54:41.016Z,6.80
2017-07-24T23:57:08.816Z,7.00
2017-07-24T23:59:37.242Z,7.37
